sensor_id;sensor_type;location;lat;lon;timestamp;pressure;altitude;pressure_sealevel;temperature;humidity
77079;BME280;66004;55.096;38.760;2023-12-22T00:02:16;98033.38;;;2.28;66.95
77079;BME280;66004;55.096;38.760;2023-12-22T00:04:42;98048.84;;;2.38;67.21
77079;BME280;66004;55.096;38.760;2023-12-22T00:07:08;98053.41;;;2.33;67.27
77079;BME280;66004;55.096;38.760;2023-12-22T00:09:33;98053.63;;;2.28;67.29
77079;BME280;66004;55.096;38.760;2023-12-22T00:11:58;98048.59;;;2.22;67.38
77079;BME280;66004;55.096;38.760;2023-12-22T00:14:24;98034.00;;;2.04;67.70
77079;BME280;66004;55.096;38.760;2023-12-22T00:16:50;98053.50;;;2.16;67.85
77079;BME280;66004;55.096;38.760;2023-12-22T00:19:15;98058.75;;;2.09;67.72
77079;BME280;66004;55.096;38.760;2023-12-22T00:21:40;98047.38;;;2.02;67.84
77079;BME280;66004;55.096;38.760;2023-12-22T00:24:06;98068.25;;;2.08;67.45
77079;BME280;66004;55.096;38.760;2023-12-22T00:26:32;98058.59;;;2.05;67.91
77079;BME280;66004;55.096;38.760;2023-12-22T00:28:57;98058.47;;;2.02;67.95
77079;BME280;66004;55.096;38.760;2023-12-22T00:31:23;98051.28;;;2.01;68.09
77079;BME280;66004;55.096;38.760;2023-12-22T00:33:48;98057.97;;;2.00;68.07
77079;BME280;66004;55.096;38.760;2023-12-22T00:36:14;98031.75;;;1.88;68.05
77079;BME280;66004;55.096;38.760;2023-12-22T00:38:40;98027.38;;;1.87;68.02
77079;BME280;66004;55.096;38.760;2023-12-22T00:41:05;98043.34;;;1.90;68.08
77079;BME280;66004;55.096;38.760;2023-12-22T00:43:31;98046.25;;;1.94;68.13
77079;BME280;66004;55.096;38.760;2023-12-22T00:45:57;98047.75;;;1.91;68.09
77079;BME280;66004;55.096;38.760;2023-12-22T00:48:23;98043.47;;;2.03;67.76
77079;BME280;66004;55.096;38.760;2023-12-22T00:50:48;98049.13;;;2.15;66.94
77079;BME280;66004;55.096;38.760;2023-12-22T00:53:14;98050.25;;;2.14;66.86
77079;BME280;66004;55.096;38.760;2023-12-22T00:55:39;98045.38;;;2.11;66.97
77079;BME280;66004;55.096;38.760;2023-12-22T00:58:05;98042.13;;;2.09;66.91
77079;BME280;66004;55.096;38.760;2023-12-22T01:00:30;98046.06;;;2.08;67.13
77079;BME280;66004;55.096;38.760;2023-12-22T01:02:56;98025.06;;;1.89;67.19
77079;BME280;66004;55.096;38.760;2023-12-22T01:05:21;98041.00;;;2.01;67.01
77079;BME280;66004;55.096;38.760;2023-12-22T01:07:47;98028.81;;;1.93;67.03
77079;BME280;66004;55.096;38.760;2023-12-22T01:10:12;98035.66;;;1.96;67.13
77079;BME280;66004;55.096;38.760;2023-12-22T01:12:38;98009.31;;;1.81;67.00
77079;BME280;66004;55.096;38.760;2023-12-22T01:15:04;98017.13;;;1.79;67.32
77079;BME280;66004;55.096;38.760;2023-12-22T01:17:29;98030.31;;;1.82;67.24
77079;BME280;66004;55.096;38.760;2023-12-22T01:19:55;98029.19;;;1.83;67.39
77079;BME280;66004;55.096;38.760;2023-12-22T01:22:20;98028.22;;;1.79;67.24
77079;BME280;66004;55.096;38.760;2023-12-22T01:24:48;98023.50;;;1.80;67.54
77079;BME280;66004;55.096;38.760;2023-12-22T01:27:13;98021.56;;;1.71;67.44
77079;BME280;66004;55.096;38.760;2023-12-22T01:29:39;98026.59;;;1.78;67.55
77079;BME280;66004;55.096;38.760;2023-12-22T01:32:05;98010.50;;;1.63;67.32
77079;BME280;66004;55.096;38.760;2023-12-22T01:34:30;98021.41;;;1.68;67.38
77079;BME280;66004;55.096;38.760;2023-12-22T01:36:56;98023.19;;;1.64;67.69
77079;BME280;66004;55.096;38.760;2023-12-22T01:39:22;98009.72;;;1.53;67.68
77079;BME280;66004;55.096;38.760;2023-12-22T01:41:47;98038.06;;;1.68;67.82
77079;BME280;66004;55.096;38.760;2023-12-22T01:44:13;98043.13;;;1.66;67.86
77079;BME280;66004;55.096;38.760;2023-12-22T01:46:38;98052.06;;;1.63;67.98
77079;BME280;66004;55.096;38.760;2023-12-22T01:49:05;98050.44;;;1.62;68.01
77079;BME280;66004;55.096;38.760;2023-12-22T01:51:32;98035.13;;;1.55;67.77
77079;BME280;66004;55.096;38.760;2023-12-22T01:53:59;98041.31;;;1.52;67.98
77079;BME280;66004;55.096;38.760;2023-12-22T01:56:25;98042.97;;;1.53;67.95
77079;BME280;66004;55.096;38.760;2023-12-22T01:58:53;98047.38;;;1.54;68.16
77079;BME280;66004;55.096;38.760;2023-12-22T02:01:22;98042.00;;;1.49;67.97
77079;BME280;66004;55.096;38.760;2023-12-22T02:03:49;98047.53;;;1.49;68.20
77079;BME280;66004;55.096;38.760;2023-12-22T02:06:18;98040.38;;;1.48;68.18
77079;BME280;66004;55.096;38.760;2023-12-22T02:08:46;98039.41;;;1.44;67.99
77079;BME280;66004;55.096;38.760;2023-12-22T02:11:12;98048.88;;;1.43;68.06
77079;BME280;66004;55.096;38.760;2023-12-22T02:13:38;98033.84;;;1.44;68.37
77079;BME280;66004;55.096;38.760;2023-12-22T02:16:11;98038.28;;;1.45;68.33
77079;BME280;66004;55.096;38.760;2023-12-22T02:18:39;98027.50;;;1.44;68.09
77079;BME280;66004;55.096;38.760;2023-12-22T02:21:07;98026.38;;;1.36;68.37
77079;BME280;66004;55.096;38.760;2023-12-22T02:23:32;98005.38;;;1.26;68.26
77079;BME280;66004;55.096;38.760;2023-12-22T02:26:07;98028.97;;;1.41;68.01
77079;BME280;66004;55.096;38.760;2023-12-22T02:28:36;98031.25;;;1.39;68.40
77079;BME280;66004;55.096;38.760;2023-12-22T02:33:34;98024.44;;;1.28;68.42
77079;BME280;66004;55.096;38.760;2023-12-22T02:36:06;98012.06;;;1.16;68.59
77079;BME280;66004;55.096;38.760;2023-12-22T02:38:33;98019.38;;;1.30;68.51
77079;BME280;66004;55.096;38.760;2023-12-22T02:40:59;98015.94;;;1.33;68.53
77079;BME280;66004;55.096;38.760;2023-12-22T02:43:25;98026.38;;;1.36;68.31
77079;BME280;66004;55.096;38.760;2023-12-22T02:45:51;97995.91;;;1.27;68.38
77079;BME280;66004;55.096;38.760;2023-12-22T02:48:17;98020.47;;;1.46;68.30
77079;BME280;66004;55.096;38.760;2023-12-22T02:50:42;98009.41;;;1.46;68.30
77079;BME280;66004;55.096;38.760;2023-12-22T02:53:08;98007.25;;;1.52;68.36
77079;BME280;66004;55.096;38.760;2023-12-22T02:55:34;98003.03;;;1.54;68.38
77079;BME280;66004;55.096;38.760;2023-12-22T02:57:59;97999.59;;;1.58;68.19
77079;BME280;66004;55.096;38.760;2023-12-22T03:00:25;98009.06;;;1.57;67.72
77079;BME280;66004;55.096;38.760;2023-12-22T03:02:50;98006.28;;;1.57;68.00
77079;BME280;66004;55.096;38.760;2023-12-22T03:05:16;98010.03;;;1.61;67.83
77079;BME280;66004;55.096;38.760;2023-12-22T03:07:41;98010.97;;;1.65;67.87
77079;BME280;66004;55.096;38.760;2023-12-22T03:10:07;98009.34;;;1.64;67.81
77079;BME280;66004;55.096;38.760;2023-12-22T03:12:32;97991.44;;;1.52;67.91
77079;BME280;66004;55.096;38.760;2023-12-22T03:14:58;98016.16;;;1.75;67.75
77079;BME280;66004;55.096;38.760;2023-12-22T03:17:23;98007.06;;;1.66;68.15
77079;BME280;66004;55.096;38.760;2023-12-22T03:19:49;97998.25;;;1.64;68.49
77079;BME280;66004;55.096;38.760;2023-12-22T03:22:15;98010.34;;;1.68;68.20
77079;BME280;66004;55.096;38.760;2023-12-22T03:24:40;98002.66;;;1.65;68.27
77079;BME280;66004;55.096;38.760;2023-12-22T03:27:06;98007.00;;;1.83;67.46
77079;BME280;66004;55.096;38.760;2023-12-22T03:29:31;98011.38;;;1.93;67.49
77079;BME280;66004;55.096;38.760;2023-12-22T03:31:57;98009.22;;;1.99;67.10
77079;BME280;66004;55.096;38.760;2023-12-22T03:34:22;98001.84;;;2.03;67.00
77079;BME280;66004;55.096;38.760;2023-12-22T03:36:48;97995.16;;;2.04;66.83
77079;BME280;66004;55.096;38.760;2023-12-22T03:39:15;97974.16;;;1.94;66.82
77079;BME280;66004;55.096;38.760;2023-12-22T03:41:41;97996.47;;;1.98;67.15
77079;BME280;66004;55.096;38.760;2023-12-22T03:44:06;97994.88;;;1.97;67.03
77079;BME280;66004;55.096;38.760;2023-12-22T03:46:32;97982.97;;;1.96;66.78
77079;BME280;66004;55.096;38.760;2023-12-22T03:48:58;97992.19;;;2.09;66.52
77079;BME280;66004;55.096;38.760;2023-12-22T03:51:23;97988.69;;;1.91;66.90
77079;BME280;66004;55.096;38.760;2023-12-22T03:53:49;97984.34;;;1.81;67.40
77079;BME280;66004;55.096;38.760;2023-12-22T03:56:14;98002.28;;;1.84;67.26
77079;BME280;66004;55.096;38.760;2023-12-22T03:58:40;97995.22;;;1.86;67.22
77079;BME280;66004;55.096;38.760;2023-12-22T04:01:05;97996.88;;;1.87;67.46
77079;BME280;66004;55.096;38.760;2023-12-22T04:03:34;97991.97;;;1.84;67.47
77079;BME280;66004;55.096;38.760;2023-12-22T04:06:03;97990.84;;;1.85;67.27
77079;BME280;66004;55.096;38.760;2023-12-22T04:08:29;97996.88;;;1.87;67.32
77079;BME280;66004;55.096;38.760;2023-12-22T04:10:54;97993.28;;;1.87;66.94
77079;BME280;66004;55.096;38.760;2023-12-22T04:13:20;97978.97;;;1.76;67.49
77079;BME280;66004;55.096;38.760;2023-12-22T04:15:45;97999.16;;;1.85;67.17
77079;BME280;66004;55.096;38.760;2023-12-22T04:18:11;97986.44;;;1.84;67.11
77079;BME280;66004;55.096;38.760;2023-12-22T04:20:37;97988.06;;;1.85;67.28
77079;BME280;66004;55.096;38.760;2023-12-22T04:23:02;97981.03;;;1.88;67.27
77079;BME280;66004;55.096;38.760;2023-12-22T04:25:28;97975.66;;;1.91;67.21
77079;BME280;66004;55.096;38.760;2023-12-22T04:27:53;97976.31;;;1.88;67.10
77079;BME280;66004;55.096;38.760;2023-12-22T04:30:19;97980.22;;;1.87;67.07
77079;BME280;66004;55.096;38.760;2023-12-22T04:32:44;97974.38;;;1.80;66.85
77079;BME280;66004;55.096;38.760;2023-12-22T04:35:10;97965.28;;;1.80;67.05
77079;BME280;66004;55.096;38.760;2023-12-22T04:37:36;97968.03;;;1.80;66.81
77079;BME280;66004;55.096;38.760;2023-12-22T04:40:01;97974.03;;;1.90;66.89
77079;BME280;66004;55.096;38.760;2023-12-22T04:42:29;97967.81;;;1.93;66.71
77079;BME280;66004;55.096;38.760;2023-12-22T04:44:55;97954.63;;;1.90;66.83
77079;BME280;66004;55.096;38.760;2023-12-22T04:47:20;97959.97;;;1.95;66.68
77079;BME280;66004;55.096;38.760;2023-12-22T04:49:46;97974.59;;;2.05;66.49
77079;BME280;66004;55.096;38.760;2023-12-22T04:52:12;97966.28;;;2.05;66.67
77079;BME280;66004;55.096;38.760;2023-12-22T04:54:38;97968.38;;;2.08;66.42
77079;BME280;66004;55.096;38.760;2023-12-22T04:57:04;97973.25;;;2.11;66.59
77079;BME280;66004;55.096;38.760;2023-12-22T04:59:29;97945.25;;;2.04;66.31
77079;BME280;66004;55.096;38.760;2023-12-22T05:01:55;97960.84;;;2.17;66.36
77079;BME280;66004;55.096;38.760;2023-12-22T05:04:20;97958.53;;;2.19;66.39
77079;BME280;66004;55.096;38.760;2023-12-22T05:06:47;97945.50;;;2.11;66.12
77079;BME280;66004;55.096;38.760;2023-12-22T05:09:13;97954.34;;;2.13;66.26
77079;BME280;66004;55.096;38.760;2023-12-22T05:11:39;97959.19;;;2.16;66.01
77079;BME280;66004;55.096;38.760;2023-12-22T05:14:04;97959.47;;;2.23;65.90
77079;BME280;66004;55.096;38.760;2023-12-22T05:16:30;97955.75;;;2.19;65.87
77079;BME280;66004;55.096;38.760;2023-12-22T05:18:59;97964.38;;;2.26;65.87
77079;BME280;66004;55.096;38.760;2023-12-22T05:21:25;97952.28;;;2.22;65.86
77079;BME280;66004;55.096;38.760;2023-12-22T05:23:50;97955.69;;;2.28;66.04
77079;BME280;66004;55.096;38.760;2023-12-22T05:26:17;97954.88;;;2.27;65.86
77079;BME280;66004;55.096;38.760;2023-12-22T05:28:43;97968.28;;;2.25;65.60
77079;BME280;66004;55.096;38.760;2023-12-22T05:31:08;97971.06;;;2.25;65.52
77079;BME280;66004;55.096;38.760;2023-12-22T05:33:34;97971.72;;;2.22;65.85
77079;BME280;66004;55.096;38.760;2023-12-22T05:36:00;97965.69;;;2.20;65.64
77079;BME280;66004;55.096;38.760;2023-12-22T05:38:25;97964.56;;;2.21;65.65
77079;BME280;66004;55.096;38.760;2023-12-22T05:40:51;97956.34;;;2.04;65.49
77079;BME280;66004;55.096;38.760;2023-12-22T05:43:16;97979.78;;;2.15;65.78
77079;BME280;66004;55.096;38.760;2023-12-22T05:45:42;97980.25;;;2.17;65.57
77079;BME280;66004;55.096;38.760;2023-12-22T05:48:07;97953.34;;;2.09;65.51
77079;BME280;66004;55.096;38.760;2023-12-22T05:50:33;97969.63;;;2.19;65.55
77079;BME280;66004;55.096;38.760;2023-12-22T05:52:59;97971.25;;;2.20;65.47
77079;BME280;66004;55.096;38.760;2023-12-22T05:55:24;97954.66;;;2.11;65.42
77079;BME280;66004;55.096;38.760;2023-12-22T05:57:49;97965.44;;;2.13;65.17
77079;BME280;66004;55.096;38.760;2023-12-22T06:00:15;97973.06;;;2.16;65.48
77079;BME280;66004;55.096;38.760;2023-12-22T06:02:42;97946.84;;;2.05;65.59
77079;BME280;66004;55.096;38.760;2023-12-22T06:05:08;97955.00;;;2.10;65.63
77079;BME280;66004;55.096;38.760;2023-12-22T06:07:33;97971.94;;;2.17;65.51
77079;BME280;66004;55.096;38.760;2023-12-22T06:09:59;97965.44;;;2.13;65.54
77079;BME280;66004;55.096;38.760;2023-12-22T06:12:24;97977.00;;;2.15;65.26
77079;BME280;66004;55.096;38.760;2023-12-22T06:14:50;97975.03;;;2.16;65.35
77079;BME280;66004;55.096;38.760;2023-12-22T06:17:15;97961.50;;;2.14;65.25
77079;BME280;66004;55.096;38.760;2023-12-22T06:19:41;97955.63;;;2.16;65.35
77079;BME280;66004;55.096;38.760;2023-12-22T06:22:06;97963.13;;;2.15;65.44
77079;BME280;66004;55.096;38.760;2023-12-22T06:24:34;97940.38;;;2.01;65.08
77079;BME280;66004;55.096;38.760;2023-12-22T06:27:00;97958.25;;;2.12;65.55
77079;BME280;66004;55.096;38.760;2023-12-22T06:29:26;97942.94;;;2.06;65.35
77079;BME280;66004;55.096;38.760;2023-12-22T06:31:51;97963.78;;;2.12;65.24
77079;BME280;66004;55.096;38.760;2023-12-22T06:34:17;97962.56;;;2.01;65.13
77079;BME280;66004;55.096;38.760;2023-12-22T06:36:43;97966.75;;;2.07;65.10
77079;BME280;66004;55.096;38.760;2023-12-22T06:39:09;97951.06;;;2.11;65.26
77079;BME280;66004;55.096;38.760;2023-12-22T06:41:34;97965.69;;;2.20;65.07
77079;BME280;66004;55.096;38.760;2023-12-22T06:44:00;97955.94;;;2.14;65.14
77079;BME280;66004;55.096;38.760;2023-12-22T06:46:26;97971.53;;;2.27;64.94
77079;BME280;66004;55.096;38.760;2023-12-22T06:48:52;97977.75;;;2.24;65.09
77079;BME280;66004;55.096;38.760;2023-12-22T06:53:45;97964.50;;;2.30;64.89
77079;BME280;66004;55.096;38.760;2023-12-22T06:56:24;97968.16;;;2.43;64.72
77079;BME280;66004;55.096;38.760;2023-12-22T06:58:51;97973.97;;;2.50;64.86
77079;BME280;66004;55.096;38.760;2023-12-22T07:03:56;97971.34;;;2.53;64.57
77079;BME280;66004;55.096;38.760;2023-12-22T07:06:23;97979.34;;;2.55;64.49
77079;BME280;66004;55.096;38.760;2023-12-22T07:11:36;97952.84;;;2.58;64.06
77079;BME280;66004;55.096;38.760;2023-12-22T07:14:02;97972.97;;;2.76;64.38
77079;BME280;66004;55.096;38.760;2023-12-22T07:16:28;97972.09;;;2.84;64.23
77079;BME280;66004;55.096;38.760;2023-12-22T07:18:53;97975.34;;;2.86;63.99
77079;BME280;66004;55.096;38.760;2023-12-22T07:21:19;97954.47;;;2.80;63.73
77079;BME280;66004;55.096;38.760;2023-12-22T07:23:44;97952.59;;;2.71;63.73
77079;BME280;66004;55.096;38.760;2023-12-22T07:26:12;97965.59;;;2.80;63.82
77079;BME280;66004;55.096;38.760;2023-12-22T07:28:37;97973.94;;;2.80;63.85
77079;BME280;66004;55.096;38.760;2023-12-22T07:31:03;97967.44;;;2.76;63.89
77079;BME280;66004;55.096;38.760;2023-12-22T07:33:29;97942.63;;;2.70;63.69
77079;BME280;66004;55.096;38.760;2023-12-22T07:35:55;97975.56;;;2.81;63.60
77079;BME280;66004;55.096;38.760;2023-12-22T07:38:20;97961.53;;;2.77;63.62
77079;BME280;66004;55.096;38.760;2023-12-22T07:40:46;97959.28;;;2.70;63.75
77079;BME280;66004;55.096;38.760;2023-12-22T07:43:12;97974.41;;;2.82;63.46
77079;BME280;66004;55.096;38.760;2023-12-22T07:45:38;97971.63;;;2.82;63.41
77079;BME280;66004;55.096;38.760;2023-12-22T07:48:04;97967.69;;;2.83;63.61
77079;BME280;66004;55.096;38.760;2023-12-22T07:50:30;97940.81;;;2.75;63.50
77079;BME280;66004;55.096;38.760;2023-12-22T07:52:55;97959.09;;;2.76;63.48
77079;BME280;66004;55.096;38.760;2023-12-22T07:55:24;97951.09;;;2.74;63.39
77079;BME280;66004;55.096;38.760;2023-12-22T07:57:49;97960.72;;;2.77;63.61
77079;BME280;66004;55.096;38.760;2023-12-22T08:00:16;97962.34;;;2.78;63.33
77079;BME280;66004;55.096;38.760;2023-12-22T08:02:42;97957.06;;;2.85;63.45
77079;BME280;66004;55.096;38.760;2023-12-22T08:05:08;97945.94;;;2.85;63.20
77079;BME280;66004;55.096;38.760;2023-12-22T08:07:33;97948.41;;;2.86;63.24
77079;BME280;66004;55.096;38.760;2023-12-22T08:09:59;97956.38;;;2.88;63.50
77079;BME280;66004;55.096;38.760;2023-12-22T08:12:24;97953.38;;;2.93;63.25
77079;BME280;66004;55.096;38.760;2023-12-22T08:14:50;97952.72;;;2.96;63.10
77079;BME280;66004;55.096;38.760;2023-12-22T08:17:15;97949.09;;;2.96;63.25
77079;BME280;66004;55.096;38.760;2023-12-22T08:19:41;97953.38;;;2.93;62.99
77079;BME280;66004;55.096;38.760;2023-12-22T08:22:10;97942.72;;;2.83;63.29
77079;BME280;66004;55.096;38.760;2023-12-22T08:24:36;97942.00;;;2.86;63.10
77079;BME280;66004;55.096;38.760;2023-12-22T08:27:01;97919.53;;;2.79;63.06
77079;BME280;66004;55.096;38.760;2023-12-22T08:29:27;97932.41;;;2.83;62.97
77079;BME280;66004;55.096;38.760;2023-12-22T08:31:53;97928.34;;;2.81;62.92
77079;BME280;66004;55.096;38.760;2023-12-22T08:34:18;97923.47;;;2.78;63.08
77079;BME280;66004;55.096;38.760;2023-12-22T08:36:44;97900.06;;;2.66;63.02
77079;BME280;66004;55.096;38.760;2023-12-22T08:39:09;97914.81;;;2.79;63.05
77079;BME280;66004;55.096;38.760;2023-12-22T08:41:35;97909.13;;;2.76;62.92
77079;BME280;66004;55.096;38.760;2023-12-22T08:44:06;97924.41;;;2.82;63.15
77079;BME280;66004;55.096;38.760;2023-12-22T08:46:31;97926.50;;;2.85;62.79
77079;BME280;66004;55.096;38.760;2023-12-22T08:48:59;97922.09;;;2.84;63.25
77079;BME280;66004;55.096;38.760;2023-12-22T08:51:28;97924.41;;;2.82;63.05
77079;BME280;66004;55.096;38.760;2023-12-22T08:53:54;97925.22;;;2.82;63.34
77079;BME280;66004;55.096;38.760;2023-12-22T08:56:23;97928.13;;;2.86;63.25
77079;BME280;66004;55.096;38.760;2023-12-22T08:58:51;97923.03;;;2.88;63.00
77079;BME280;66004;55.096;38.760;2023-12-22T09:01:17;97917.47;;;2.88;62.94
77079;BME280;66004;55.096;38.760;2023-12-22T09:03:43;97911.94;;;2.88;63.03
77079;BME280;66004;55.096;38.760;2023-12-22T09:06:17;97906.63;;;2.95;62.99
77079;BME280;66004;55.096;38.760;2023-12-22T09:08:44;97905.50;;;3.08;63.10
77079;BME280;66004;55.096;38.760;2023-12-22T09:11:11;97899.28;;;3.11;62.62
77079;BME280;66004;55.096;38.760;2023-12-22T09:13:37;97904.38;;;3.22;62.89
77079;BME280;66004;55.096;38.760;2023-12-22T09:16:03;97904.19;;;3.27;62.65
77079;BME280;66004;55.096;38.760;2023-12-22T09:18:29;97912.31;;;3.32;62.64
77079;BME280;66004;55.096;38.760;2023-12-22T09:20:54;97914.16;;;3.28;62.45
77079;BME280;66004;55.096;38.760;2023-12-22T09:23:20;97912.25;;;3.20;62.88
77079;BME280;66004;55.096;38.760;2023-12-22T09:25:47;97911.13;;;3.21;62.02
77079;BME280;66004;55.096;38.760;2023-12-22T09:28:12;97902.06;;;3.24;62.46
77079;BME280;66004;55.096;38.760;2023-12-22T09:30:38;97907.63;;;3.24;62.75
77079;BME280;66004;55.096;38.760;2023-12-22T09:33:03;97875.66;;;3.18;62.44
77079;BME280;66004;55.096;38.760;2023-12-22T09:35:29;97894.69;;;3.28;61.96
77079;BME280;66004;55.096;38.760;2023-12-22T09:37:55;97884.97;;;3.34;62.13
77079;BME280;66004;55.096;38.760;2023-12-22T09:40:20;97879.63;;;3.29;62.45
77079;BME280;66004;55.096;38.760;2023-12-22T09:42:48;97896.88;;;3.35;62.19
77079;BME280;66004;55.096;38.760;2023-12-22T09:45:16;97883.78;;;3.23;62.46
77079;BME280;66004;55.096;38.760;2023-12-22T09:47:44;97881.09;;;3.14;62.30
77079;BME280;66004;55.096;38.760;2023-12-22T09:50:11;97891.09;;;3.27;62.31
77079;BME280;66004;55.096;38.760;2023-12-22T09:52:40;97898.66;;;3.39;62.46
77079;BME280;66004;55.096;38.760;2023-12-22T09:55:08;97858.78;;;3.23;62.33
77079;BME280;66004;55.096;38.760;2023-12-22T09:57:35;97885.91;;;3.38;62.27
77079;BME280;66004;55.096;38.760;2023-12-22T10:00:03;97897.25;;;3.45;62.09
77079;BME280;66004;55.096;38.760;2023-12-22T10:02:33;97887.06;;;3.49;62.15
77079;BME280;66004;55.096;38.760;2023-12-22T10:05:00;97878.03;;;3.40;62.07
77079;BME280;66004;55.096;38.760;2023-12-22T10:07:26;97888.22;;;3.36;62.07
77079;BME280;66004;55.096;38.760;2023-12-22T10:09:52;97879.19;;;3.39;61.84
77079;BME280;66004;55.096;38.760;2023-12-22T10:12:21;97862.03;;;3.25;62.19
77079;BME280;66004;55.096;38.760;2023-12-22T10:14:47;97869.91;;;3.35;62.00
77079;BME280;66004;55.096;38.760;2023-12-22T10:17:13;97854.84;;;3.36;62.04
77079;BME280;66004;55.096;38.760;2023-12-22T10:19:40;97856.50;;;3.37;62.04
77079;BME280;66004;55.096;38.760;2023-12-22T10:22:05;97863.41;;;3.31;61.96
77079;BME280;66004;55.096;38.760;2023-12-22T10:24:44;97852.06;;;3.11;62.04
77079;BME280;66004;55.096;38.760;2023-12-22T10:27:15;97870.56;;;3.07;62.24
77079;BME280;66004;55.096;38.760;2023-12-22T10:29:54;97855.38;;;3.05;62.20
77079;BME280;66004;55.096;38.760;2023-12-22T10:32:20;97860.81;;;3.01;62.42
77079;BME280;66004;55.096;38.760;2023-12-22T10:34:47;97839.03;;;2.91;62.37
77079;BME280;66004;55.096;38.760;2023-12-22T10:37:12;97841.38;;;3.01;62.31
77079;BME280;66004;55.096;38.760;2023-12-22T10:39:38;97854.91;;;2.90;62.89
77079;BME280;66004;55.096;38.760;2023-12-22T10:42:04;97830.19;;;2.64;62.86
77079;BME280;66004;55.096;38.760;2023-12-22T10:44:30;97866.06;;;2.69;63.18
77079;BME280;66004;55.096;38.760;2023-12-22T10:47:00;97828.06;;;2.49;63.53
77079;BME280;66004;55.096;38.760;2023-12-22T10:49:25;97838.03;;;2.62;63.50
77079;BME280;66004;55.096;38.760;2023-12-22T10:51:52;97831.56;;;2.58;63.69
77079;BME280;66004;55.096;38.760;2023-12-22T10:54:18;97825.13;;;2.79;63.18
77079;BME280;66004;55.096;38.760;2023-12-22T10:56:44;97832.56;;;2.87;62.57
77079;BME280;66004;55.096;38.760;2023-12-22T10:59:10;97834.16;;;2.76;63.20
77079;BME280;66004;55.096;38.760;2023-12-22T11:01:36;97847.00;;;2.80;62.96
77079;BME280;66004;55.096;38.760;2023-12-22T11:04:07;97829.47;;;2.67;63.51
77079;BME280;66004;55.096;38.760;2023-12-22T11:06:35;97838.97;;;2.66;63.56
77079;BME280;66004;55.096;38.760;2023-12-22T11:09:08;97836.00;;;2.71;63.39
77079;BME280;66004;55.096;38.760;2023-12-22T11:11:36;97829.00;;;2.65;63.75
77079;BME280;66004;55.096;38.760;2023-12-22T11:14:02;97828.13;;;2.73;63.56
77079;BME280;66004;55.096;38.760;2023-12-22T11:16:29;97819.06;;;2.64;63.48
77079;BME280;66004;55.096;38.760;2023-12-22T11:18:55;97845.59;;;2.74;63.91
77079;BME280;66004;55.096;38.760;2023-12-22T11:21:24;97835.25;;;2.62;64.04
77079;BME280;66004;55.096;38.760;2023-12-22T11:23:51;97824.81;;;2.47;64.26
77079;BME280;66004;55.096;38.760;2023-12-22T11:26:18;97808.03;;;2.22;64.88
77079;BME280;66004;55.096;38.760;2023-12-22T11:28:48;97825.19;;;2.24;65.47
77079;BME280;66004;55.096;38.760;2023-12-22T11:31:15;97811.69;;;2.14;65.50
77079;BME280;66004;55.096;38.760;2023-12-22T11:33:46;97815.63;;;2.13;65.49
77079;BME280;66004;55.096;38.760;2023-12-22T11:36:13;97820.50;;;2.16;65.57
77079;BME280;66004;55.096;38.760;2023-12-22T11:38:42;97813.47;;;2.19;65.71
77079;BME280;66004;55.096;38.760;2023-12-22T11:41:22;97825.38;;;2.19;65.73
77079;BME280;66004;55.096;38.760;2023-12-22T11:43:50;97791.97;;;1.94;65.53
77079;BME280;66004;55.096;38.760;2023-12-22T11:46:17;97805.75;;;2.03;65.90
77079;BME280;66004;55.096;38.760;2023-12-22T11:48:47;97815.50;;;2.09;66.09
77079;BME280;66004;55.096;38.760;2023-12-22T11:51:14;97798.84;;;2.09;66.12
77079;BME280;66004;55.096;38.760;2023-12-22T11:53:40;97810.09;;;2.13;65.94
77079;BME280;66004;55.096;38.760;2023-12-22T11:56:08;97804.75;;;2.08;66.20
77079;BME280;66004;55.096;38.760;2023-12-22T11:58:37;97803.84;;;2.16;65.94
77079;BME280;66004;55.096;38.760;2023-12-22T12:01:06;97785.31;;;2.08;66.30
77079;BME280;66004;55.096;38.760;2023-12-22T12:03:32;97778.84;;;2.04;66.04
77079;BME280;66004;55.096;38.760;2023-12-22T12:06:11;97788.44;;;2.06;66.15
77079;BME280;66004;55.096;38.760;2023-12-22T12:08:39;97785.31;;;2.08;66.29
77079;BME280;66004;55.096;38.760;2023-12-22T12:11:05;97781.38;;;2.09;66.11
77079;BME280;66004;55.096;38.760;2023-12-22T12:13:33;97763.41;;;1.94;66.21
77079;BME280;66004;55.096;38.760;2023-12-22T12:15:59;97776.09;;;2.16;65.44
77079;BME280;66004;55.096;38.760;2023-12-22T12:18:31;97770.09;;;2.14;65.53
77079;BME280;66004;55.096;38.760;2023-12-22T12:20:59;97779.50;;;2.01;66.45
77079;BME280;66004;55.096;38.760;2023-12-22T12:23:26;97761.66;;;1.89;66.40
77079;BME280;66004;55.096;38.760;2023-12-22T12:25:53;97767.19;;;1.89;66.70
77079;BME280;66004;55.096;38.760;2023-12-22T12:28:30;97774.84;;;1.92;66.85
77079;BME280;66004;55.096;38.760;2023-12-22T12:31:02;97767.19;;;1.89;66.69
77079;BME280;66004;55.096;38.760;2023-12-22T12:33:28;97746.78;;;1.73;66.86
77079;BME280;66004;55.096;38.760;2023-12-22T12:35:56;97753.53;;;1.84;66.84
77079;BME280;66004;55.096;38.760;2023-12-22T12:38:28;97756.59;;;1.91;66.95
77079;BME280;66004;55.096;38.760;2023-12-22T12:40:59;97749.19;;;1.95;66.88
77079;BME280;66004;55.096;38.760;2023-12-22T12:43:25;97754.09;;;1.99;66.89
77079;BME280;66004;55.096;38.760;2023-12-22T12:45:51;97707.97;;;1.73;67.22
77079;BME280;66004;55.096;38.760;2023-12-22T12:48:17;97745.03;;;1.89;67.33
77079;BME280;66004;55.096;38.760;2023-12-22T12:50:46;97750.97;;;2.00;67.19
77079;BME280;66004;55.096;38.760;2023-12-22T12:53:11;97753.41;;;2.02;67.16
77079;BME280;66004;55.096;38.760;2023-12-22T12:55:37;97742.63;;;2.21;66.51
77079;BME280;66004;55.096;38.760;2023-12-22T12:58:03;97752.53;;;2.22;66.32
77079;BME280;66004;55.096;38.760;2023-12-22T13:00:30;97737.00;;;2.09;66.89
77079;BME280;66004;55.096;38.760;2023-12-22T13:03:00;97749.31;;;2.20;66.71
77079;BME280;66004;55.096;38.760;2023-12-22T13:05:26;97753.72;;;2.21;66.84
77079;BME280;66004;55.096;38.760;2023-12-22T13:07:52;97747.97;;;2.26;67.04